sensor_id;sensor_type;location;lat;lon;timestamp;temperature;humidity
13464;DHT22;6804;48.774;9.174;2023-07-28T00:02:05;19.20;99.90
13464;DHT22;6804;48.774;9.174;2023-07-28T00:04:35;19.20;99.90
13464;DHT22;6804;48.774;9.174;2023-07-28T00:07:05;19.20;99.90
13464;DHT22;6804;48.774;9.174;2023-07-28T00:09:53;19.20;99.90
13464;DHT22;6804;48.774;9.174;2023-07-28T00:12:21;19.20;99.90
13464;DHT22;6804;48.774;9.174;2023-07-28T00:14:50;19.20;99.90
13464;DHT22;6804;48.774;9.174;2023-07-28T00:17:18;19.20;99.90
13464;DHT22;6804;48.774;9.174;2023-07-28T00:19:46;19.20;99.90
13464;DHT22;6804;48.774;9.174;2023-07-28T00:22:14;19.20;99.90
13464;DHT22;6804;48.774;9.174;2023-07-28T00:24:41;19.20;99.90
13464;DHT22;6804;48.774;9.174;2023-07-28T00:27:10;19.20;99.90
13464;DHT22;6804;48.774;9.174;2023-07-28T00:29:40;19.20;99.90
13464;DHT22;6804;48.774;9.174;2023-07-28T00:32:10;19.20;99.90
13464;DHT22;6804;48.774;9.174;2023-07-28T00:34:38;19.20;99.90
13464;DHT22;6804;48.774;9.174;2023-07-28T00:37:06;19.10;99.90
13464;DHT22;6804;48.774;9.174;2023-07-28T00:39:52;19.10;99.90
13464;DHT22;6804;48.774;9.174;2023-07-28T00:42:21;19.10;99.90
13464;DHT22;6804;48.774;9.174;2023-07-28T00:45:07;19.10;99.90
13464;DHT22;6804;48.774;9.174;2023-07-28T00:47:37;19.10;99.90
13464;DHT22;6804;48.774;9.174;2023-07-28T00:50:08;19.00;99.90
13464;DHT22;6804;48.774;9.174;2023-07-28T00:52:40;19.00;99.90
13464;DHT22;6804;48.774;9.174;2023-07-28T00:55:08;19.00;99.90
13464;DHT22;6804;48.774;9.174;2023-07-28T00:57:38;19.00;99.90
13464;DHT22;6804;48.774;9.174;2023-07-28T01:00:10;19.00;99.90
13464;DHT22;6804;48.774;9.174;2023-07-28T01:02:38;19.00;99.90
13464;DHT22;6804;48.774;9.174;2023-07-28T01:05:08;19.00;99.90
13464;DHT22;6804;48.774;9.174;2023-07-28T01:07:40;18.90;99.90
13464;DHT22;6804;48.774;9.174;2023-07-28T01:10:14;19.00;99.90
13464;DHT22;6804;48.774;9.174;2023-07-28T01:12:44;18.90;99.90
13464;DHT22;6804;48.774;9.174;2023-07-28T01:15:13;18.90;99.90
13464;DHT22;6804;48.774;9.174;2023-07-28T01:17:46;18.90;99.90
13464;DHT22;6804;48.774;9.174;2023-07-28T01:20:13;18.90;99.90
13464;DHT22;6804;48.774;9.174;2023-07-28T01:22:48;18.90;99.90
13464;DHT22;6804;48.774;9.174;2023-07-28T01:25:28;18.90;99.90
13464;DHT22;6804;48.774;9.174;2023-07-28T01:28:01;18.90;99.90
13464;DHT22;6804;48.774;9.174;2023-07-28T01:30:28;18.90;99.90
13464;DHT22;6804;48.774;9.174;2023-07-28T01:32:56;18.80;99.90
13464;DHT22;6804;48.774;9.174;2023-07-28T01:35:28;18.90;99.90
13464;DHT22;6804;48.774;9.174;2023-07-28T01:37:56;18.90;99.90
13464;DHT22;6804;48.774;9.174;2023-07-28T01:40:26;18.80;99.90
13464;DHT22;6804;48.774;9.174;2023-07-28T01:42:54;18.80;99.90
13464;DHT22;6804;48.774;9.174;2023-07-28T01:45:22;18.80;99.90
13464;DHT22;6804;48.774;9.174;2023-07-28T01:47:49;18.80;99.90
13464;DHT22;6804;48.774;9.174;2023-07-28T01:50:20;18.80;99.90
13464;DHT22;6804;48.774;9.174;2023-07-28T01:52:47;18.80;99.90
13464;DHT22;6804;48.774;9.174;2023-07-28T01:55:15;18.80;99.90
13464;DHT22;6804;48.774;9.174;2023-07-28T01:57:54;18.80;99.90
13464;DHT22;6804;48.774;9.174;2023-07-28T02:00:24;18.80;99.90
13464;DHT22;6804;48.774;9.174;2023-07-28T02:02:52;18.80;99.90
13464;DHT22;6804;48.774;9.174;2023-07-28T02:05:20;18.80;99.90
13464;DHT22;6804;48.774;9.174;2023-07-28T02:07:50;18.90;99.90
13464;DHT22;6804;48.774;9.174;2023-07-28T02:10:17;18.80;99.90
13464;DHT22;6804;48.774;9.174;2023-07-28T02:12:45;18.80;99.90
13464;DHT22;6804;48.774;9.174;2023-07-28T02:15:14;18.90;99.90
13464;DHT22;6804;48.774;9.174;2023-07-28T02:17:42;18.90;99.90
13464;DHT22;6804;48.774;9.174;2023-07-28T02:20:10;18.90;99.90
13464;DHT22;6804;48.774;9.174;2023-07-28T02:22:38;18.90;99.90
13464;DHT22;6804;48.774;9.174;2023-07-28T02:25:09;18.90;99.90
13464;DHT22;6804;48.774;9.174;2023-07-28T02:27:37;19.00;99.90
13464;DHT22;6804;48.774;9.174;2023-07-28T02:30:10;19.00;99.90
13464;DHT22;6804;48.774;9.174;2023-07-28T02:32:38;19.00;99.90
13464;DHT22;6804;48.774;9.174;2023-07-28T02:35:10;19.00;99.90
13464;DHT22;6804;48.774;9.174;2023-07-28T02:37:38;18.90;99.90
13464;DHT22;6804;48.774;9.174;2023-07-28T02:40:11;18.90;99.90
13464;DHT22;6804;48.774;9.174;2023-07-28T02:42:40;19.00;99.90
13464;DHT22;6804;48.774;9.174;2023-07-28T02:45:10;18.90;99.90
13464;DHT22;6804;48.774;9.174;2023-07-28T02:47:37;19.00;99.90
13464;DHT22;6804;48.774;9.174;2023-07-28T02:50:11;18.90;99.90
13464;DHT22;6804;48.774;9.174;2023-07-28T02:52:42;18.90;99.90
13464;DHT22;6804;48.774;9.174;2023-07-28T02:55:09;18.90;99.90
13464;DHT22;6804;48.774;9.174;2023-07-28T02:57:36;18.80;99.90
13464;DHT22;6804;48.774;9.174;2023-07-28T03:00:15;18.80;99.90
13464;DHT22;6804;48.774;9.174;2023-07-28T03:02:42;18.80;99.90
13464;DHT22;6804;48.774;9.174;2023-07-28T03:05:11;18.80;99.90
13464;DHT22;6804;48.774;9.174;2023-07-28T03:07:38;18.80;99.90
13464;DHT22;6804;48.774;9.174;2023-07-28T03:10:11;18.70;99.90
13464;DHT22;6804;48.774;9.174;2023-07-28T03:12:42;18.70;99.90
13464;DHT22;6804;48.774;9.174;2023-07-28T03:15:09;18.60;99.90
13464;DHT22;6804;48.774;9.174;2023-07-28T03:17:37;18.60;99.90
13464;DHT22;6804;48.774;9.174;2023-07-28T03:20:05;18.50;99.90
13464;DHT22;6804;48.774;9.174;2023-07-28T03:22:34;18.40;99.90
13464;DHT22;6804;48.774;9.174;2023-07-28T03:25:01;18.50;99.90
13464;DHT22;6804;48.774;9.174;2023-07-28T03:27:29;18.50;99.90
13464;DHT22;6804;48.774;9.174;2023-07-28T03:29:56;18.50;99.90
13464;DHT22;6804;48.774;9.174;2023-07-28T03:32:26;18.50;99.90
13464;DHT22;6804;48.774;9.174;2023-07-28T03:34:57;18.50;99.90
13464;DHT22;6804;48.774;9.174;2023-07-28T03:37:24;18.50;99.90
13464;DHT22;6804;48.774;9.174;2023-07-28T03:39:56;18.50;99.90
13464;DHT22;6804;48.774;9.174;2023-07-28T03:42:24;18.50;99.90
13464;DHT22;6804;48.774;9.174;2023-07-28T03:44:52;18.60;99.90
13464;DHT22;6804;48.774;9.174;2023-07-28T03:47:20;18.60;99.90
13464;DHT22;6804;48.774;9.174;2023-07-28T03:49:47;18.60;99.90
13464;DHT22;6804;48.774;9.174;2023-07-28T03:52:15;18.50;99.90
13464;DHT22;6804;48.774;9.174;2023-07-28T03:54:43;18.60;99.90
13464;DHT22;6804;48.774;9.174;2023-07-28T03:57:12;18.60;99.90
13464;DHT22;6804;48.774;9.174;2023-07-28T03:59:43;18.50;99.90
13464;DHT22;6804;48.774;9.174;2023-07-28T04:02:13;18.50;99.90
13464;DHT22;6804;48.774;9.174;2023-07-28T04:04:40;18.50;99.90
13464;DHT22;6804;48.774;9.174;2023-07-28T04:07:12;18.50;99.90
13464;DHT22;6804;48.774;9.174;2023-07-28T04:09:41;18.50;99.90
13464;DHT22;6804;48.774;9.174;2023-07-28T04:12:08;18.60;99.90
13464;DHT22;6804;48.774;9.174;2023-07-28T04:14:43;18.60;99.90
13464;DHT22;6804;48.774;9.174;2023-07-28T04:17:12;18.70;99.90
13464;DHT22;6804;48.774;9.174;2023-07-28T04:19:40;18.70;99.90
13464;DHT22;6804;48.774;9.174;2023-07-28T04:22:12;18.70;99.90
13464;DHT22;6804;48.774;9.174;2023-07-28T04:24:47;18.70;99.90
13464;DHT22;6804;48.774;9.174;2023-07-28T04:27:33;18.70;99.90
13464;DHT22;6804;48.774;9.174;2023-07-28T04:30:06;18.80;99.90
13464;DHT22;6804;48.774;9.174;2023-07-28T04:32:34;18.80;99.90
13464;DHT22;6804;48.774;9.174;2023-07-28T04:35:21;18.80;99.90
13464;DHT22;6804;48.774;9.174;2023-07-28T04:37:49;18.80;99.90
13464;DHT22;6804;48.774;9.174;2023-07-28T04:40:17;18.90;99.90
13464;DHT22;6804;48.774;9.174;2023-07-28T04:42:47;18.90;99.90
13464;DHT22;6804;48.774;9.174;2023-07-28T04:45:21;18.90;99.90
13464;DHT22;6804;48.774;9.174;2023-07-28T04:47:49;18.90;99.90
13464;DHT22;6804;48.774;9.174;2023-07-28T04:50:17;18.80;99.90
13464;DHT22;6804;48.774;9.174;2023-07-28T04:52:47;18.80;99.90
13464;DHT22;6804;48.774;9.174;2023-07-28T04:55:16;18.80;99.90
13464;DHT22;6804;48.774;9.174;2023-07-28T04:57:44;18.80;99.90
13464;DHT22;6804;48.774;9.174;2023-07-28T05:00:15;18.80;99.90
13464;DHT22;6804;48.774;9.174;2023-07-28T05:02:45;18.90;99.90
13464;DHT22;6804;48.774;9.174;2023-07-28T05:05:13;18.80;99.90
13464;DHT22;6804;48.774;9.174;2023-07-28T05:07:45;18.80;99.90
13464;DHT22;6804;48.774;9.174;2023-07-28T05:10:12;18.80;99.90
13464;DHT22;6804;48.774;9.174;2023-07-28T05:12:45;18.90;99.90
13464;DHT22;6804;48.774;9.174;2023-07-28T05:15:33;18.90;99.90
13464;DHT22;6804;48.774;9.174;2023-07-28T05:18:06;18.90;99.90
13464;DHT22;6804;48.774;9.174;2023-07-28T05:20:34;18.90;99.90
13464;DHT22;6804;48.774;9.174;2023-07-28T05:23:01;18.90;99.90
13464;DHT22;6804;48.774;9.174;2023-07-28T05:25:31;18.90;99.90
13464;DHT22;6804;48.774;9.174;2023-07-28T05:27:59;18.90;99.90
13464;DHT22;6804;48.774;9.174;2023-07-28T05:30:28;18.90;99.90
13464;DHT22;6804;48.774;9.174;2023-07-28T05:32:58;18.90;99.90
13464;DHT22;6804;48.774;9.174;2023-07-28T05:35:28;18.90;99.90
13464;DHT22;6804;48.774;9.174;2023-07-28T05:37:55;18.90;99.90
13464;DHT22;6804;48.774;9.174;2023-07-28T05:40:26;18.90;99.90
13464;DHT22;6804;48.774;9.174;2023-07-28T05:42:53;18.90;99.90
13464;DHT22;6804;48.774;9.174;2023-07-28T05:45:22;18.90;99.90
13464;DHT22;6804;48.774;9.174;2023-07-28T05:47:56;18.90;99.90
13464;DHT22;6804;48.774;9.174;2023-07-28T05:50:24;18.90;99.90
13464;DHT22;6804;48.774;9.174;2023-07-28T05:52:53;18.90;99.90
13464;DHT22;6804;48.774;9.174;2023-07-28T05:55:23;18.90;99.90
13464;DHT22;6804;48.774;9.174;2023-07-28T05:57:51;18.90;99.90
13464;DHT22;6804;48.774;9.174;2023-07-28T06:00:18;18.90;99.90
13464;DHT22;6804;48.774;9.174;2023-07-28T06:02:46;18.90;99.90
13464;DHT22;6804;48.774;9.174;2023-07-28T06:05:23;18.90;99.90
13464;DHT22;6804;48.774;9.174;2023-07-28T06:07:53;18.90;99.90
13464;DHT22;6804;48.774;9.174;2023-07-28T06:10:21;18.90;99.90
13464;DHT22;6804;48.774;9.174;2023-07-28T06:12:49;18.90;99.90
13464;DHT22;6804;48.774;9.174;2023-07-28T06:15:19;18.90;99.90
13464;DHT22;6804;48.774;9.174;2023-07-28T06:17:49;18.90;99.90
13464;DHT22;6804;48.774;9.174;2023-07-28T06:20:20;18.90;99.90
13464;DHT22;6804;48.774;9.174;2023-07-28T06:22:54;18.90;99.90
13464;DHT22;6804;48.774;9.174;2023-07-28T06:25:23;18.90;99.90
13464;DHT22;6804;48.774;9.174;2023-07-28T06:27:51;18.90;99.90
13464;DHT22;6804;48.774;9.174;2023-07-28T06:30:19;18.90;99.90
13464;DHT22;6804;48.774;9.174;2023-07-28T06:32:46;18.90;99.90
13464;DHT22;6804;48.774;9.174;2023-07-28T06:35:34;18.90;99.90
13464;DHT22;6804;48.774;9.174;2023-07-28T06:38:03;18.90;99.90
13464;DHT22;6804;48.774;9.174;2023-07-28T06:40:31;18.90;99.90
13464;DHT22;6804;48.774;9.174;2023-07-28T06:42:59;18.90;99.90
13464;DHT22;6804;48.774;9.174;2023-07-28T06:45:27;19.00;99.90
13464;DHT22;6804;48.774;9.174;2023-07-28T06:47:58;19.00;99.90
13464;DHT22;6804;48.774;9.174;2023-07-28T06:50:26;19.00;99.90
13464;DHT22;6804;48.774;9.174;2023-07-28T06:52:54;19.00;99.90
13464;DHT22;6804;48.774;9.174;2023-07-28T06:55:27;19.00;99.90
13464;DHT22;6804;48.774;9.174;2023-07-28T06:57:55;19.00;99.90
13464;DHT22;6804;48.774;9.174;2023-07-28T07:00:26;19.10;99.90
13464;DHT22;6804;48.774;9.174;2023-07-28T07:02:56;19.10;99.90
13464;DHT22;6804;48.774;9.174;2023-07-28T07:05:31;19.10;99.90
13464;DHT22;6804;48.774;9.174;2023-07-28T07:07:59;19.10;99.90
13464;DHT22;6804;48.774;9.174;2023-07-28T07:10:29;19.10;99.90
13464;DHT22;6804;48.774;9.174;2023-07-28T07:12:57;19.20;99.90
13464;DHT22;6804;48.774;9.174;2023-07-28T07:15:26;19.20;99.90
13464;DHT22;6804;48.774;9.174;2023-07-28T07:17:59;19.20;99.90
13464;DHT22;6804;48.774;9.174;2023-07-28T07:20:28;19.30;99.90
13464;DHT22;6804;48.774;9.174;2023-07-28T07:22:58;19.30;99.90
13464;DHT22;6804;48.774;9.174;2023-07-28T07:25:30;19.40;99.90
13464;DHT22;6804;48.774;9.174;2023-07-28T07:28:02;19.40;99.90
13464;DHT22;6804;48.774;9.174;2023-07-28T07:30:32;19.40;99.90
13464;DHT22;6804;48.774;9.174;2023-07-28T07:33:00;19.50;99.90
13464;DHT22;6804;48.774;9.174;2023-07-28T07:35:29;19.50;99.90
13464;DHT22;6804;48.774;9.174;2023-07-28T07:38:03;19.60;99.90
13464;DHT22;6804;48.774;9.174;2023-07-28T07:40:34;19.60;99.90
13464;DHT22;6804;48.774;9.174;2023-07-28T07:43:04;19.70;99.90
13464;DHT22;6804;48.774;9.174;2023-07-28T07:45:33;19.70;99.90
13464;DHT22;6804;48.774;9.174;2023-07-28T07:48:01;19.90;99.90
13464;DHT22;6804;48.774;9.174;2023-07-28T07:50:29;19.90;99.90
13464;DHT22;6804;48.774;9.174;2023-07-28T07:52:59;20.00;99.90
13464;DHT22;6804;48.774;9.174;2023-07-28T07:55:27;20.10;99.90
13464;DHT22;6804;48.774;9.174;2023-07-28T07:58:00;20.20;99.90
13464;DHT22;6804;48.774;9.174;2023-07-28T08:00:29;20.10;99.90
13464;DHT22;6804;48.774;9.174;2023-07-28T08:02:57;20.10;99.90
13464;DHT22;6804;48.774;9.174;2023-07-28T08:05:25;20.10;99.90
13464;DHT22;6804;48.774;9.174;2023-07-28T08:07:54;20.20;99.90
13464;DHT22;6804;48.774;9.174;2023-07-28T08:10:21;20.10;99.90
13464;DHT22;6804;48.774;9.174;2023-07-28T08:12:52;20.20;99.90
13464;DHT22;6804;48.774;9.174;2023-07-28T08:15:22;20.20;99.90
13464;DHT22;6804;48.774;9.174;2023-07-28T08:17:52;20.20;99.90
13464;DHT22;6804;48.774;9.174;2023-07-28T08:20:20;20.20;99.90
13464;DHT22;6804;48.774;9.174;2023-07-28T08:22:50;20.30;99.90
13464;DHT22;6804;48.774;9.174;2023-07-28T08:25:20;20.20;99.90
13464;DHT22;6804;48.774;9.174;2023-07-28T08:27:52;20.30;99.90
13464;DHT22;6804;48.774;9.174;2023-07-28T08:30:24;20.30;99.90
13464;DHT22;6804;48.774;9.174;2023-07-28T08:32:51;20.30;99.90
13464;DHT22;6804;48.774;9.174;2023-07-28T08:35:22;20.20;99.90
13464;DHT22;6804;48.774;9.174;2023-07-28T08:37:50;20.30;99.90
13464;DHT22;6804;48.774;9.174;2023-07-28T08:40:18;20.30;99.90
13464;DHT22;6804;48.774;9.174;2023-07-28T08:42:46;20.40;99.90
13464;DHT22;6804;48.774;9.174;2023-07-28T08:45:15;20.50;99.90
13464;DHT22;6804;48.774;9.174;2023-07-28T08:47:50;20.60;99.90
13464;DHT22;6804;48.774;9.174;2023-07-28T08:50:18;20.70;99.90
13464;DHT22;6804;48.774;9.174;2023-07-28T08:52:46;20.80;99.90
13464;DHT22;6804;48.774;9.174;2023-07-28T08:55:21;20.80;99.90
13464;DHT22;6804;48.774;9.174;2023-07-28T08:57:49;20.90;99.90
13464;DHT22;6804;48.774;9.174;2023-07-28T09:00:18;20.90;99.90
13464;DHT22;6804;48.774;9.174;2023-07-28T09:02:50;21.00;99.90
13464;DHT22;6804;48.774;9.174;2023-07-28T09:05:20;21.00;99.90
13464;DHT22;6804;48.774;9.174;2023-07-28T09:07:52;21.10;99.90
13464;DHT22;6804;48.774;9.174;2023-07-28T09:10:20;21.10;99.90
13464;DHT22;6804;48.774;9.174;2023-07-28T09:12:49;21.20;99.90
13464;DHT22;6804;48.774;9.174;2023-07-28T09:15:18;21.20;99.90
13464;DHT22;6804;48.774;9.174;2023-07-28T09:17:48;21.30;99.90
13464;DHT22;6804;48.774;9.174;2023-07-28T09:20:23;21.30;99.90
13464;DHT22;6804;48.774;9.174;2023-07-28T09:22:53;21.30;99.90
13464;DHT22;6804;48.774;9.174;2023-07-28T09:25:22;21.20;99.90
13464;DHT22;6804;48.774;9.174;2023-07-28T09:27:51;21.10;99.90
13464;DHT22;6804;48.774;9.174;2023-07-28T09:30:26;21.10;99.90
13464;DHT22;6804;48.774;9.174;2023-07-28T09:32:54;21.10;99.90
13464;DHT22;6804;48.774;9.174;2023-07-28T09:35:25;21.10;99.90
13464;DHT22;6804;48.774;9.174;2023-07-28T09:37:52;21.20;99.90
13464;DHT22;6804;48.774;9.174;2023-07-28T09:40:21;21.20;99.90
13464;DHT22;6804;48.774;9.174;2023-07-28T09:42:51;21.20;99.90
13464;DHT22;6804;48.774;9.174;2023-07-28T09:45:21;21.30;99.90
13464;DHT22;6804;48.774;9.174;2023-07-28T09:47:55;21.30;99.90
13464;DHT22;6804;48.774;9.174;2023-07-28T09:50:27;21.20;99.90
13464;DHT22;6804;48.774;9.174;2023-07-28T09:53:00;21.20;99.90
13464;DHT22;6804;48.774;9.174;2023-07-28T09:55:33;21.20;99.90
13464;DHT22;6804;48.774;9.174;2023-07-28T09:58:04;21.20;99.90
13464;DHT22;6804;48.774;9.174;2023-07-28T10:00:36;21.10;99.90
13464;DHT22;6804;48.774;9.174;2023-07-28T10:03:04;21.00;99.90
13464;DHT22;6804;48.774;9.174;2023-07-28T10:05:35;21.00;99.90
13464;DHT22;6804;48.774;9.174;2023-07-28T10:08:06;21.00;99.90
13464;DHT22;6804;48.774;9.174;2023-07-28T10:10:34;21.10;99.90
13464;DHT22;6804;48.774;9.174;2023-07-28T10:13:04;21.20;99.90
13464;DHT22;6804;48.774;9.174;2023-07-28T10:15:37;21.40;99.90
13464;DHT22;6804;48.774;9.174;2023-07-28T10:18:08;21.40;99.90
13464;DHT22;6804;48.774;9.174;2023-07-28T10:20:38;21.40;99.90
13464;DHT22;6804;48.774;9.174;2023-07-28T10:23:11;21.40;99.90
13464;DHT22;6804;48.774;9.174;2023-07-28T10:25:41;21.30;99.90
13464;DHT22;6804;48.774;9.174;2023-07-28T10:28:29;21.30;99.90
13464;DHT22;6804;48.774;9.174;2023-07-28T10:30:58;21.50;99.90
13464;DHT22;6804;48.774;9.174;2023-07-28T10:33:32;21.50;99.90
13464;DHT22;6804;48.774;9.174;2023-07-28T10:36:13;21.50;99.90
13464;DHT22;6804;48.774;9.174;2023-07-28T10:38:46;21.60;99.90
13464;DHT22;6804;48.774;9.174;2023-07-28T10:41:26;21.70;99.90
13464;DHT22;6804;48.774;9.174;2023-07-28T10:43:54;21.70;99.90
13464;DHT22;6804;48.774;9.174;2023-07-28T10:46:26;21.70;99.90
13464;DHT22;6804;48.774;9.174;2023-07-28T10:49:05;21.80;99.90
13464;DHT22;6804;48.774;9.174;2023-07-28T10:51:42;21.80;99.90
13464;DHT22;6804;48.774;9.174;2023-07-28T10:54:18;21.90;99.90
13464;DHT22;6804;48.774;9.174;2023-07-28T10:56:46;21.90;99.90
13464;DHT22;6804;48.774;9.174;2023-07-28T10:59:17;22.00;99.90
13464;DHT22;6804;48.774;9.174;2023-07-28T11:01:44;22.10;99.90
13464;DHT22;6804;48.774;9.174;2023-07-28T11:04:15;22.20;99.90
13464;DHT22;6804;48.774;9.174;2023-07-28T11:06:50;22.20;99.90
13464;DHT22;6804;48.774;9.174;2023-07-28T11:09:19;22.30;99.90
13464;DHT22;6804;48.774;9.174;2023-07-28T11:11:49;22.40;99.90
13464;DHT22;6804;48.774;9.174;2023-07-28T11:14:19;22.50;99.90
13464;DHT22;6804;48.774;9.174;2023-07-28T11:16:47;22.70;99.90
13464;DHT22;6804;48.774;9.174;2023-07-28T11:19:16;22.90;99.90
13464;DHT22;6804;48.774;9.174;2023-07-28T11:21:52;22.90;99.90
13464;DHT22;6804;48.774;9.174;2023-07-28T11:24:20;23.10;99.90
13464;DHT22;6804;48.774;9.174;2023-07-28T11:26:49;23.20;99.90
13464;DHT22;6804;48.774;9.174;2023-07-28T11:29:18;23.20;99.90
13464;DHT22;6804;48.774;9.174;2023-07-28T11:31:48;23.20;99.90
13464;DHT22;6804;48.774;9.174;2023-07-28T11:34:17;23.20;99.90
13464;DHT22;6804;48.774;9.174;2023-07-28T11:36:48;23.30;99.90
13464;DHT22;6804;48.774;9.174;2023-07-28T11:39:19;23.30;99.90
13464;DHT22;6804;48.774;9.174;2023-07-28T11:41:49;23.30;99.90
13464;DHT22;6804;48.774;9.174;2023-07-28T11:44:20;23.30;99.90
13464;DHT22;6804;48.774;9.174;2023-07-28T11:46:57;23.30;99.90
13464;DHT22;6804;48.774;9.174;2023-07-28T11:49:28;23.40;99.90
13464;DHT22;6804;48.774;9.174;2023-07-28T11:51:57;23.50;99.90
13464;DHT22;6804;48.774;9.174;2023-07-28T11:54:30;23.50;99.90
13464;DHT22;6804;48.774;9.174;2023-07-28T11:56:58;23.50;99.90
13464;DHT22;6804;48.774;9.174;2023-07-28T11:59:27;23.50;99.90
13464;DHT22;6804;48.774;9.174;2023-07-28T12:01:57;23.50;99.90
13464;DHT22;6804;48.774;9.174;2023-07-28T12:04:26;23.40;99.90
13464;DHT22;6804;48.774;9.174;2023-07-28T12:07:03;23.40;99.90
13464;DHT22;6804;48.774;9.174;2023-07-28T12:09:48;23.40;99.90
13464;DHT22;6804;48.774;9.174;2023-07-28T12:12:18;23.40;99.90
13464;DHT22;6804;48.774;9.174;2023-07-28T12:14:48;23.30;99.90
13464;DHT22;6804;48.774;9.174;2023-07-28T12:17:18;23.30;99.90
13464;DHT22;6804;48.774;9.174;2023-07-28T12:19:58;23.20;99.90
13464;DHT22;6804;48.774;9.174;2023-07-28T12:22:26;23.00;99.90
13464;DHT22;6804;48.774;9.174;2023-07-28T12:25:01;23.00;99.90
13464;DHT22;6804;48.774;9.174;2023-07-28T12:27:31;22.90;99.90
13464;DHT22;6804;48.774;9.174;2023-07-28T12:29:59;22.90;99.90
13464;DHT22;6804;48.774;9.174;2023-07-28T12:32:27;22.80;99.90
13464;DHT22;6804;48.774;9.174;2023-07-28T12:34:58;22.80;99.90
13464;DHT22;6804;48.774;9.174;2023-07-28T12:37:26;22.80;99.90
13464;DHT22;6804;48.774;9.174;2023-07-28T12:39:54;22.70;99.90
13464;DHT22;6804;48.774;9.174;2023-07-28T12:42:30;22.70;99.90
13464;DHT22;6804;48.774;9.174;2023-07-28T12:44:58;22.70;99.90
13464;DHT22;6804;48.774;9.174;2023-07-28T12:47:26;22.80;99.90
13464;DHT22;6804;48.774;9.174;2023-07-28T12:49:54;22.90;99.90
13464;DHT22;6804;48.774;9.174;2023-07-28T12:52:22;22.90;99.90
13464;DHT22;6804;48.774;9.174;2023-07-28T12:54:49;23.00;99.90
13464;DHT22;6804;48.774;9.174;2023-07-28T12:57:21;23.10;99.90
13464;DHT22;6804;48.774;9.174;2023-07-28T12:59:51;23.20;99.90
13464;DHT22;6804;48.774;9.174;2023-07-28T13:02:19;23.20;99.90
13464;DHT22;6804;48.774;9.174;2023-07-28T13:04:49;23.20;99.90
13464;DHT22;6804;48.774;9.174;2023-07-28T13:07:17;23.20;99.90
13464;DHT22;6804;48.774;9.174;2023-07-28T13:09:45;23.20;99.90
13464;DHT22;6804;48.774;9.174;2023-07-28T13:12:19;23.30;99.90
13464;DHT22;6804;48.774;9.174;2023-07-28T13:14:47;23.20;99.90
13464;DHT22;6804;48.774;9.174;2023-07-28T13:17:17;23.30;99.90
13464;DHT22;6804;48.774;9.174;2023-07-28T13:19:45;23.20;99.90
13464;DHT22;6804;48.774;9.174;2023-07-28T13:22:18;23.20;99.90
13464;DHT22;6804;48.774;9.174;2023-07-28T13:24:46;23.20;99.90
13464;DHT22;6804;48.774;9.174;2023-07-28T13:27:13;23.20;99.90
13464;DHT22;6804;48.774;9.174;2023-07-28T13:29:42;23.20;99.90
13464;DHT22;6804;48.774;9.174;2023-07-28T13:32:22;23.20;99.90
13464;DHT22;6804;48.774;9.174;2023-07-28T13:34:50;23.10;99.90
13464;DHT22;6804;48.774;9.174;2023-07-28T13:37:19;23.00;99.90
13464;DHT22;6804;48.774;9.174;2023-07-28T13:40:06;23.00;99.90
13464;DHT22;6804;48.774;9.174;2023-07-28T13:42:39;22.90;99.90
13464;DHT22;6804;48.774;9.174;2023-07-28T13:45:13;22.80;99.90
13464;DHT22;6804;48.774;9.174;2023-07-28T13:47:45;22.60;99.90
13464;DHT22;6804;48.774;9.174;2023-07-28T13:50:12;22.50;99.90
13464;DHT22;6804;48.774;9.174;2023-07-28T13:52:42;22.30;99.90
13464;DHT22;6804;48.774;9.174;2023-07-28T13:55:12;22.20;99.90
13464;DHT22;6804;48.774;9.174;2023-07-28T13:57:42;22.10;99.90
13464;DHT22;6804;48.774;9.174;2023-07-28T14:00:12;21.90;99.90
13464;DHT22;6804;48.774;9.174;2023-07-28T14:02:40;21.80;99.90
13464;DHT22;6804;48.774;9.174;2023-07-28T14:05:11;21.70;99.90
13464;DHT22;6804;48.774;9.174;2023-07-28T14:07:40;21.60;99.90
13464;DHT22;6804;48.774;9.174;2023-07-28T14:10:10;21.60;99.90
13464;DHT22;6804;48.774;9.174;2023-07-28T14:12:39;21.50;99.90
13464;DHT22;6804;48.774;9.174;2023-07-28T14:15:11;21.20;99.90
13464;DHT22;6804;48.774;9.174;2023-07-28T14:17:39;20.70;99.90
13464;DHT22;6804;48.774;9.174;2023-07-28T14:20:13;20.50;99.90
13464;DHT22;6804;48.774;9.174;2023-07-28T14:22:43;20.50;99.90
13464;DHT22;6804;48.774;9.174;2023-07-28T14:25:11;20.40;99.90
13464;DHT22;6804;48.774;9.174;2023-07-28T14:27:41;20.50;99.90
13464;DHT22;6804;48.774;9.174;2023-07-28T14:30:12;20.50;99.90
13464;DHT22;6804;48.774;9.174;2023-07-28T14:32:40;20.60;99.90
13464;DHT22;6804;48.774;9.174;2023-07-28T14:35:12;20.70;99.90
13464;DHT22;6804;48.774;9.174;2023-07-28T14:37:40;20.80;99.90
13464;DHT22;6804;48.774;9.174;2023-07-28T14:40:11;20.80;99.90
13464;DHT22;6804;48.774;9.174;2023-07-28T14:42:39;20.80;99.90
13464;DHT22;6804;48.774;9.174;2023-07-28T14:45:14;20.80;99.90
13464;DHT22;6804;48.774;9.174;2023-07-28T14:47:44;20.80;99.90
13464;DHT22;6804;48.774;9.174;2023-07-28T14:50:12;20.90;99.90
13464;DHT22;6804;48.774;9.174;2023-07-28T14:52:41;20.90;99.90
13464;DHT22;6804;48.774;9.174;2023-07-28T14:55:10;20.80;99.90
13464;DHT22;6804;48.774;9.174;2023-07-28T14:57:41;20.80;99.90
13464;DHT22;6804;48.774;9.174;2023-07-28T15:00:10;20.90;99.90
13464;DHT22;6804;48.774;9.174;2023-07-28T15:02:41;20.90;99.90
13464;DHT22;6804;48.774;9.174;2023-07-28T15:05:09;21.00;99.90
13464;DHT22;6804;48.774;9.174;2023-07-28T15:07:46;21.00;99.90
13464;DHT22;6804;48.774;9.174;2023-07-28T15:10:13;20.90;99.90
13464;DHT22;6804;48.774;9.174;2023-07-28T15:12:41;20.80;99.90
13464;DHT22;6804;48.774;9.174;2023-07-28T15:15:12;20.70;99.90
13464;DHT22;6804;48.774;9.174;2023-07-28T15:17:42;20.70;99.90
13464;DHT22;6804;48.774;9.174;2023-07-28T15:20:10;20.70;99.90
13464;DHT22;6804;48.774;9.174;2023-07-28T15:22:37;20.80;99.90
13464;DHT22;6804;48.774;9.174;2023-07-28T15:25:11;20.90;99.90
13464;DHT22;6804;48.774;9.174;2023-07-28T15:27:42;21.00;99.90
13464;DHT22;6804;48.774;9.174;2023-07-28T15:30:10;21.10;99.90
13464;DHT22;6804;48.774;9.174;2023-07-28T15:32:41;21.10;99.90
13464;DHT22;6804;48.774;9.174;2023-07-28T15:35:09;21.20;99.90
13464;DHT22;6804;48.774;9.174;2023-07-28T15:37:37;21.10;99.90
13464;DHT22;6804;48.774;9.174;2023-07-28T15:40:13;21.10;99.90
13464;DHT22;6804;48.774;9.174;2023-07-28T15:42:41;21.10;99.90
13464;DHT22;6804;48.774;9.174;2023-07-28T15:45:16;21.10;99.90
13464;DHT22;6804;48.774;9.174;2023-07-28T15:47:44;21.20;99.90
13464;DHT22;6804;48.774;9.174;2023-07-28T15:50:11;21.20;99.90
13464;DHT22;6804;48.774;9.174;2023-07-28T15:52:41;21.20;99.90
13464;DHT22;6804;48.774;9.174;2023-07-28T15:55:09;21.20;99.90
13464;DHT22;6804;48.774;9.174;2023-07-28T15:57:41;21.20;99.90
13464;DHT22;6804;48.774;9.174;2023-07-28T16:00:10;21.10;99.90
13464;DHT22;6804;48.774;9.174;2023-07-28T16:02:43;21.10;99.90
13464;DHT22;6804;48.774;9.174;2023-07-28T16:05:15;21.10;99.90